sensor_id;sensor_type;location;lat;lon;timestamp;P1;durP1;ratioP1;P2;durP2;ratioP2
48526;SDS011;34317;51.660;5.824;2022-07-21T00:00:23;20.35;;;16.02;;
48526;SDS011;34317;51.660;5.824;2022-07-21T00:02:51;17.73;;;14.90;;
48526;SDS011;34317;51.660;5.824;2022-07-21T00:05:19;19.23;;;15.35;;
48526;SDS011;34317;51.660;5.824;2022-07-21T00:07:47;19.90;;;15.48;;
48526;SDS011;34317;51.660;5.824;2022-07-21T00:10:15;21.48;;;15.43;;
48526;SDS011;34317;51.660;5.824;2022-07-21T00:12:43;17.48;;;14.40;;
48526;SDS011;34317;51.660;5.824;2022-07-21T00:15:11;21.88;;;14.60;;
48526;SDS011;34317;51.660;5.824;2022-07-21T00:17:39;15.32;;;12.07;;
48526;SDS011;34317;51.660;5.824;2022-07-21T00:20:07;15.68;;;12.13;;
48526;SDS011;34317;51.660;5.824;2022-07-21T00:22:35;15.23;;;11.38;;
48526;SDS011;34317;51.660;5.824;2022-07-21T00:25:04;12.30;;;10.82;;
48526;SDS011;34317;51.660;5.824;2022-07-21T00:27:32;13.43;;;10.70;;
48526;SDS011;34317;51.660;5.824;2022-07-21T00:30:00;13.30;;;10.20;;
48526;SDS011;34317;51.660;5.824;2022-07-21T00:32:27;13.07;;;10.45;;
48526;SDS011;34317;51.660;5.824;2022-07-21T00:35:02;12.05;;;10.27;;
48526;SDS011;34317;51.660;5.824;2022-07-21T00:37:33;11.70;;;9.90;;
48526;SDS011;34317;51.660;5.824;2022-07-21T00:40:00;12.82;;;9.98;;
48526;SDS011;34317;51.660;5.824;2022-07-21T00:42:28;12.98;;;10.15;;
48526;SDS011;34317;51.660;5.824;2022-07-21T00:44:58;12.95;;;10.48;;
48526;SDS011;34317;51.660;5.824;2022-07-21T00:47:27;10.32;;;8.95;;
48526;SDS011;34317;51.660;5.824;2022-07-21T00:49:56;11.85;;;9.65;;
48526;SDS011;34317;51.660;5.824;2022-07-21T00:52:25;11.88;;;9.18;;
48526;SDS011;34317;51.660;5.824;2022-07-21T00:54:52;11.73;;;9.70;;
48526;SDS011;34317;51.660;5.824;2022-07-21T00:57:20;12.15;;;9.70;;
48526;SDS011;34317;51.660;5.824;2022-07-21T00:59:47;10.98;;;9.27;;
48526;SDS011;34317;51.660;5.824;2022-07-21T01:02:15;11.05;;;9.43;;
48526;SDS011;34317;51.660;5.824;2022-07-21T01:04:42;11.40;;;9.30;;
48526;SDS011;34317;51.660;5.824;2022-07-21T01:07:09;11.93;;;9.45;;
48526;SDS011;34317;51.660;5.824;2022-07-21T01:09:37;12.57;;;9.00;;
48526;SDS011;34317;51.660;5.824;2022-07-21T01:12:04;11.27;;;9.07;;
48526;SDS011;34317;51.660;5.824;2022-07-21T01:14:32;11.15;;;9.10;;
48526;SDS011;34317;51.660;5.824;2022-07-21T01:17:00;11.55;;;9.13;;
48526;SDS011;34317;51.660;5.824;2022-07-21T01:19:29;12.00;;;9.45;;
48526;SDS011;34317;51.660;5.824;2022-07-21T01:21:57;11.90;;;9.75;;
48526;SDS011;34317;51.660;5.824;2022-07-21T01:24:24;13.88;;;9.65;;
48526;SDS011;34317;51.660;5.824;2022-07-21T01:26:52;12.15;;;9.20;;
48526;SDS011;34317;51.660;5.824;2022-07-21T01:29:21;13.00;;;9.63;;
48526;SDS011;34317;51.660;5.824;2022-07-21T01:31:49;12.23;;;10.10;;
48526;SDS011;34317;51.660;5.824;2022-07-21T01:34:17;11.80;;;9.93;;
48526;SDS011;34317;51.660;5.824;2022-07-21T01:36:47;12.85;;;10.52;;
48526;SDS011;34317;51.660;5.824;2022-07-21T01:39:14;11.80;;;9.93;;
48526;SDS011;34317;51.660;5.824;2022-07-21T01:42:01;13.05;;;10.13;;
48526;SDS011;34317;51.660;5.824;2022-07-21T01:44:28;13.90;;;10.02;;
48526;SDS011;34317;51.660;5.824;2022-07-21T01:46:55;13.15;;;10.38;;
48526;SDS011;34317;51.660;5.824;2022-07-21T01:49:25;12.63;;;9.85;;
48526;SDS011;34317;51.660;5.824;2022-07-21T01:51:52;12.25;;;9.50;;
48526;SDS011;34317;51.660;5.824;2022-07-21T01:54:19;13.15;;;10.32;;
48526;SDS011;34317;51.660;5.824;2022-07-21T01:56:50;14.05;;;10.80;;
48526;SDS011;34317;51.660;5.824;2022-07-21T01:59:18;14.38;;;10.65;;
48526;SDS011;34317;51.660;5.824;2022-07-21T02:01:46;12.52;;;10.23;;
48526;SDS011;34317;51.660;5.824;2022-07-21T02:04:14;13.75;;;10.30;;
48526;SDS011;34317;51.660;5.824;2022-07-21T02:06:41;13.57;;;10.27;;
48526;SDS011;34317;51.660;5.824;2022-07-21T02:09:09;12.68;;;10.63;;
48526;SDS011;34317;51.660;5.824;2022-07-21T02:11:36;12.10;;;10.32;;
48526;SDS011;34317;51.660;5.824;2022-07-21T02:14:05;14.15;;;10.93;;
48526;SDS011;34317;51.660;5.824;2022-07-21T02:16:32;13.00;;;10.73;;
48526;SDS011;34317;51.660;5.824;2022-07-21T02:19:00;14.07;;;11.80;;
48526;SDS011;34317;51.660;5.824;2022-07-21T02:21:27;13.80;;;11.35;;
48526;SDS011;34317;51.660;5.824;2022-07-21T02:23:55;14.70;;;10.68;;
48526;SDS011;34317;51.660;5.824;2022-07-21T02:26:22;13.40;;;10.50;;
48526;SDS011;34317;51.660;5.824;2022-07-21T02:28:49;15.90;;;11.70;;
48526;SDS011;34317;51.660;5.824;2022-07-21T02:31:17;13.38;;;10.63;;
48526;SDS011;34317;51.660;5.824;2022-07-21T02:33:44;14.73;;;10.77;;
48526;SDS011;34317;51.660;5.824;2022-07-21T02:36:12;13.77;;;11.05;;
48526;SDS011;34317;51.660;5.824;2022-07-21T02:38:39;14.05;;;11.10;;
48526;SDS011;34317;51.660;5.824;2022-07-21T02:41:06;13.40;;;10.77;;
48526;SDS011;34317;51.660;5.824;2022-07-21T02:43:33;14.25;;;10.98;;
48526;SDS011;34317;51.660;5.824;2022-07-21T02:46:00;14.02;;;11.25;;
48526;SDS011;34317;51.660;5.824;2022-07-21T02:48:28;14.45;;;10.48;;
48526;SDS011;34317;51.660;5.824;2022-07-21T02:50:55;15.13;;;11.30;;
48526;SDS011;34317;51.660;5.824;2022-07-21T02:53:23;14.35;;;10.98;;
48526;SDS011;34317;51.660;5.824;2022-07-21T02:55:51;15.65;;;11.85;;
48526;SDS011;34317;51.660;5.824;2022-07-21T02:58:23;14.23;;;10.90;;
48526;SDS011;34317;51.660;5.824;2022-07-21T03:00:53;15.93;;;11.57;;
48526;SDS011;34317;51.660;5.824;2022-07-21T03:03:22;15.25;;;11.27;;
48526;SDS011;34317;51.660;5.824;2022-07-21T03:05:50;15.80;;;12.43;;
48526;SDS011;34317;51.660;5.824;2022-07-21T03:08:19;15.45;;;11.18;;
48526;SDS011;34317;51.660;5.824;2022-07-21T03:10:46;18.08;;;11.75;;
48526;SDS011;34317;51.660;5.824;2022-07-21T03:13:14;17.67;;;12.63;;
48526;SDS011;34317;51.660;5.824;2022-07-21T03:15:41;15.45;;;11.63;;
48526;SDS011;34317;51.660;5.824;2022-07-21T03:18:08;16.95;;;12.45;;
48526;SDS011;34317;51.660;5.824;2022-07-21T03:20:37;15.88;;;11.50;;
48526;SDS011;34317;51.660;5.824;2022-07-21T03:23:05;15.48;;;12.00;;
48526;SDS011;34317;51.660;5.824;2022-07-21T03:25:32;15.55;;;11.43;;
48526;SDS011;34317;51.660;5.824;2022-07-21T03:28:00;16.38;;;11.90;;
48526;SDS011;34317;51.660;5.824;2022-07-21T03:30:27;19.13;;;11.50;;
48526;SDS011;34317;51.660;5.824;2022-07-21T03:32:55;16.60;;;12.77;;
48526;SDS011;34317;51.660;5.824;2022-07-21T03:35:23;15.40;;;11.82;;
48526;SDS011;34317;51.660;5.824;2022-07-21T03:37:51;17.50;;;12.15;;
48526;SDS011;34317;51.660;5.824;2022-07-21T03:40:20;14.95;;;12.00;;
48526;SDS011;34317;51.660;5.824;2022-07-21T03:42:51;16.25;;;12.18;;
48526;SDS011;34317;51.660;5.824;2022-07-21T03:45:19;17.23;;;12.32;;
48526;SDS011;34317;51.660;5.824;2022-07-21T03:47:47;18.38;;;12.68;;
48526;SDS011;34317;51.660;5.824;2022-07-21T03:50:14;18.17;;;12.45;;
48526;SDS011;34317;51.660;5.824;2022-07-21T03:52:44;17.13;;;12.10;;
48526;SDS011;34317;51.660;5.824;2022-07-21T03:55:13;18.48;;;13.20;;
48526;SDS011;34317;51.660;5.824;2022-07-21T03:57:48;15.70;;;12.05;;
48526;SDS011;34317;51.660;5.824;2022-07-21T04:00:18;17.85;;;12.95;;
48526;SDS011;34317;51.660;5.824;2022-07-21T04:02:48;16.85;;;12.55;;
48526;SDS011;34317;51.660;5.824;2022-07-21T04:05:15;18.10;;;12.93;;
48526;SDS011;34317;51.660;5.824;2022-07-21T04:07:44;21.02;;;12.90;;
48526;SDS011;34317;51.660;5.824;2022-07-21T04:10:13;19.30;;;13.35;;
48526;SDS011;34317;51.660;5.824;2022-07-21T04:12:44;16.65;;;13.07;;
48526;SDS011;34317;51.660;5.824;2022-07-21T04:15:11;17.63;;;13.30;;
48526;SDS011;34317;51.660;5.824;2022-07-21T04:17:39;20.08;;;13.57;;
48526;SDS011;34317;51.660;5.824;2022-07-21T04:20:07;17.98;;;13.30;;
48526;SDS011;34317;51.660;5.824;2022-07-21T04:22:36;16.85;;;12.95;;
48526;SDS011;34317;51.660;5.824;2022-07-21T04:25:04;20.65;;;13.65;;
48526;SDS011;34317;51.660;5.824;2022-07-21T04:27:32;18.40;;;13.85;;
48526;SDS011;34317;51.660;5.824;2022-07-21T04:30:00;18.15;;;13.25;;
48526;SDS011;34317;51.660;5.824;2022-07-21T04:32:28;17.80;;;13.15;;
48526;SDS011;34317;51.660;5.824;2022-07-21T04:34:55;18.45;;;13.65;;
48526;SDS011;34317;51.660;5.824;2022-07-21T04:37:22;19.15;;;13.60;;
48526;SDS011;34317;51.660;5.824;2022-07-21T04:39:50;19.20;;;13.38;;
48526;SDS011;34317;51.660;5.824;2022-07-21T04:42:19;19.42;;;14.23;;
48526;SDS011;34317;51.660;5.824;2022-07-21T04:44:47;17.02;;;13.43;;
48526;SDS011;34317;51.660;5.824;2022-07-21T04:47:14;16.60;;;13.10;;
48526;SDS011;34317;51.660;5.824;2022-07-21T04:49:42;18.10;;;14.15;;
48526;SDS011;34317;51.660;5.824;2022-07-21T04:52:09;18.27;;;14.15;;
48526;SDS011;34317;51.660;5.824;2022-07-21T04:54:36;18.30;;;13.82;;
48526;SDS011;34317;51.660;5.824;2022-07-21T04:57:03;18.75;;;13.95;;
48526;SDS011;34317;51.660;5.824;2022-07-21T04:59:33;19.27;;;14.73;;
48526;SDS011;34317;51.660;5.824;2022-07-21T05:02:01;18.50;;;13.88;;
48526;SDS011;34317;51.660;5.824;2022-07-21T05:04:29;19.10;;;13.98;;
48526;SDS011;34317;51.660;5.824;2022-07-21T05:06:56;18.92;;;14.00;;
48526;SDS011;34317;51.660;5.824;2022-07-21T05:09:24;20.20;;;14.52;;
48526;SDS011;34317;51.660;5.824;2022-07-21T05:11:51;20.58;;;14.13;;
48526;SDS011;34317;51.660;5.824;2022-07-21T05:14:18;19.23;;;13.15;;
48526;SDS011;34317;51.660;5.824;2022-07-21T05:16:45;19.48;;;14.75;;
48526;SDS011;34317;51.660;5.824;2022-07-21T05:19:12;20.83;;;14.02;;
48526;SDS011;34317;51.660;5.824;2022-07-21T05:21:39;19.63;;;14.65;;
48526;SDS011;34317;51.660;5.824;2022-07-21T05:24:07;19.98;;;14.93;;
48526;SDS011;34317;51.660;5.824;2022-07-21T05:26:35;18.55;;;14.30;;
48526;SDS011;34317;51.660;5.824;2022-07-21T05:29:03;18.48;;;14.05;;
48526;SDS011;34317;51.660;5.824;2022-07-21T05:31:30;18.55;;;14.48;;
48526;SDS011;34317;51.660;5.824;2022-07-21T05:33:57;18.17;;;13.88;;
48526;SDS011;34317;51.660;5.824;2022-07-21T05:36:24;19.83;;;14.18;;
48526;SDS011;34317;51.660;5.824;2022-07-21T05:38:51;20.40;;;14.00;;
48526;SDS011;34317;51.660;5.824;2022-07-21T05:41:19;21.17;;;14.48;;
48526;SDS011;34317;51.660;5.824;2022-07-21T05:43:46;18.08;;;13.63;;
48526;SDS011;34317;51.660;5.824;2022-07-21T05:46:13;17.77;;;13.25;;
48526;SDS011;34317;51.660;5.824;2022-07-21T05:48:41;19.08;;;13.93;;
48526;SDS011;34317;51.660;5.824;2022-07-21T05:51:08;20.02;;;13.25;;
48526;SDS011;34317;51.660;5.824;2022-07-21T05:53:41;19.08;;;12.63;;
48526;SDS011;34317;51.660;5.824;2022-07-21T05:56:08;19.65;;;12.73;;
48526;SDS011;34317;51.660;5.824;2022-07-21T05:58:35;16.65;;;12.55;;
48526;SDS011;34317;51.660;5.824;2022-07-21T06:01:03;15.15;;;11.88;;
48526;SDS011;34317;51.660;5.824;2022-07-21T06:03:40;16.98;;;11.48;;
48526;SDS011;34317;51.660;5.824;2022-07-21T06:06:09;17.35;;;11.43;;
48526;SDS011;34317;51.660;5.824;2022-07-21T06:08:40;14.38;;;11.10;;
48526;SDS011;34317;51.660;5.824;2022-07-21T06:11:08;14.68;;;11.13;;
48526;SDS011;34317;51.660;5.824;2022-07-21T06:13:37;14.77;;;11.25;;
48526;SDS011;34317;51.660;5.824;2022-07-21T06:16:04;13.90;;;11.15;;
48526;SDS011;34317;51.660;5.824;2022-07-21T06:18:33;15.55;;;11.48;;
48526;SDS011;34317;51.660;5.824;2022-07-21T06:21:00;15.73;;;10.63;;
48526;SDS011;34317;51.660;5.824;2022-07-21T06:23:28;14.77;;;11.13;;
48526;SDS011;34317;51.660;5.824;2022-07-21T06:25:55;15.35;;;11.25;;
48526;SDS011;34317;51.660;5.824;2022-07-21T06:28:23;16.15;;;11.00;;
48526;SDS011;34317;51.660;5.824;2022-07-21T06:30:50;15.23;;;10.68;;
48526;SDS011;34317;51.660;5.824;2022-07-21T06:33:17;16.60;;;11.40;;
48526;SDS011;34317;51.660;5.824;2022-07-21T06:35:45;13.68;;;10.65;;
48526;SDS011;34317;51.660;5.824;2022-07-21T06:38:12;17.20;;;10.98;;
48526;SDS011;34317;51.660;5.824;2022-07-21T06:40:40;15.85;;;11.52;;
48526;SDS011;34317;51.660;5.824;2022-07-21T06:43:10;20.50;;;12.82;;
48526;SDS011;34317;51.660;5.824;2022-07-21T06:45:55;16.60;;;12.30;;
48526;SDS011;34317;51.660;5.824;2022-07-21T06:48:24;19.20;;;12.40;;
48526;SDS011;34317;51.660;5.824;2022-07-21T06:50:52;21.00;;;12.55;;
48526;SDS011;34317;51.660;5.824;2022-07-21T06:53:21;16.23;;;12.45;;
48526;SDS011;34317;51.660;5.824;2022-07-21T06:55:49;23.33;;;13.10;;
48526;SDS011;34317;51.660;5.824;2022-07-21T06:58:26;26.40;;;14.55;;
48526;SDS011;34317;51.660;5.824;2022-07-21T07:00:54;22.10;;;14.27;;
48526;SDS011;34317;51.660;5.824;2022-07-21T07:03:23;24.30;;;15.13;;
48526;SDS011;34317;51.660;5.824;2022-07-21T07:05:51;23.63;;;15.48;;
48526;SDS011;34317;51.660;5.824;2022-07-21T07:08:18;23.15;;;14.57;;
48526;SDS011;34317;51.660;5.824;2022-07-21T07:10:45;23.33;;;15.23;;
48526;SDS011;34317;51.660;5.824;2022-07-21T07:13:13;22.70;;;15.43;;
48526;SDS011;34317;51.660;5.824;2022-07-21T07:16:01;26.70;;;15.52;;
48526;SDS011;34317;51.660;5.824;2022-07-21T07:18:29;28.48;;;16.40;;
48526;SDS011;34317;51.660;5.824;2022-07-21T07:20:56;26.50;;;15.40;;
48526;SDS011;34317;51.660;5.824;2022-07-21T07:23:23;25.33;;;14.75;;
48526;SDS011;34317;51.660;5.824;2022-07-21T07:25:50;24.13;;;14.43;;
48526;SDS011;34317;51.660;5.824;2022-07-21T07:28:17;21.58;;;13.57;;
48526;SDS011;34317;51.660;5.824;2022-07-21T07:30:44;16.92;;;12.77;;
48526;SDS011;34317;51.660;5.824;2022-07-21T07:33:11;18.65;;;12.73;;
48526;SDS011;34317;51.660;5.824;2022-07-21T07:35:38;18.50;;;13.35;;
48526;SDS011;34317;51.660;5.824;2022-07-21T07:38:05;19.45;;;13.32;;
48526;SDS011;34317;51.660;5.824;2022-07-21T07:40:32;21.38;;;13.52;;
48526;SDS011;34317;51.660;5.824;2022-07-21T07:43:00;21.42;;;14.05;;
48526;SDS011;34317;51.660;5.824;2022-07-21T07:45:34;21.20;;;13.05;;
48526;SDS011;34317;51.660;5.824;2022-07-21T07:48:02;20.83;;;13.77;;
48526;SDS011;34317;51.660;5.824;2022-07-21T07:50:30;18.83;;;13.35;;
48526;SDS011;34317;51.660;5.824;2022-07-21T07:52:57;20.63;;;13.65;;
48526;SDS011;34317;51.660;5.824;2022-07-21T07:55:24;19.92;;;13.63;;
48526;SDS011;34317;51.660;5.824;2022-07-21T07:57:51;20.63;;;13.93;;
48526;SDS011;34317;51.660;5.824;2022-07-21T08:00:19;19.00;;;12.88;;
48526;SDS011;34317;51.660;5.824;2022-07-21T08:03:06;18.67;;;12.75;;
48526;SDS011;34317;51.660;5.824;2022-07-21T08:05:34;19.95;;;12.95;;
48526;SDS011;34317;51.660;5.824;2022-07-21T08:08:01;17.33;;;12.98;;
48526;SDS011;34317;51.660;5.824;2022-07-21T08:10:28;17.23;;;12.20;;
48526;SDS011;34317;51.660;5.824;2022-07-21T08:13:07;19.95;;;12.50;;
48526;SDS011;34317;51.660;5.824;2022-07-21T08:15:36;16.85;;;12.80;;
48526;SDS011;34317;51.660;5.824;2022-07-21T08:18:04;21.05;;;12.90;;
48526;SDS011;34317;51.660;5.824;2022-07-21T08:20:32;18.95;;;12.50;;
48526;SDS011;34317;51.660;5.824;2022-07-21T08:23:01;20.48;;;13.10;;
48526;SDS011;34317;51.660;5.824;2022-07-21T08:25:28;20.13;;;13.50;;
48526;SDS011;34317;51.660;5.824;2022-07-21T08:27:55;19.42;;;12.55;;
48526;SDS011;34317;51.660;5.824;2022-07-21T08:30:23;17.10;;;13.25;;
48526;SDS011;34317;51.660;5.824;2022-07-21T08:32:57;20.30;;;13.57;;
48526;SDS011;34317;51.660;5.824;2022-07-21T08:35:25;20.52;;;13.57;;
48526;SDS011;34317;51.660;5.824;2022-07-21T08:37:57;21.00;;;13.00;;
48526;SDS011;34317;51.660;5.824;2022-07-21T08:40:34;19.70;;;13.32;;
48526;SDS011;34317;51.660;5.824;2022-07-21T08:43:04;21.30;;;12.85;;
48526;SDS011;34317;51.660;5.824;2022-07-21T08:45:33;19.75;;;12.38;;
48526;SDS011;34317;51.660;5.824;2022-07-21T08:48:00;18.67;;;12.57;;
48526;SDS011;34317;51.660;5.824;2022-07-21T08:50:30;17.10;;;11.18;;
48526;SDS011;34317;51.660;5.824;2022-07-21T08:53:00;10.07;;;6.80;;
48526;SDS011;34317;51.660;5.824;2022-07-21T08:55:28;7.85;;;5.88;;
48526;SDS011;34317;51.660;5.824;2022-07-21T08:57:57;6.18;;;4.88;;
48526;SDS011;34317;51.660;5.824;2022-07-21T09:00:25;7.13;;;5.07;;
48526;SDS011;34317;51.660;5.824;2022-07-21T09:03:12;6.28;;;4.97;;
48526;SDS011;34317;51.660;5.824;2022-07-21T09:05:43;9.23;;;5.40;;
48526;SDS011;34317;51.660;5.824;2022-07-21T09:08:33;8.60;;;6.15;;
48526;SDS011;34317;51.660;5.824;2022-07-21T09:14:03;8.02;;;5.43;;
48526;SDS011;34317;51.660;5.824;2022-07-21T09:19:14;6.60;;;5.35;;
48526;SDS011;34317;51.660;5.824;2022-07-21T09:21:44;7.53;;;5.90;;
48526;SDS011;34317;51.660;5.824;2022-07-21T09:24:14;7.13;;;5.28;;
48526;SDS011;34317;51.660;5.824;2022-07-21T09:26:56;6.68;;;5.22;;
48526;SDS011;34317;51.660;5.824;2022-07-21T09:29:24;7.43;;;5.55;;
48526;SDS011;34317;51.660;5.824;2022-07-21T09:31:52;9.30;;;5.97;;
48526;SDS011;34317;51.660;5.824;2022-07-21T09:34:19;9.20;;;5.53;;
48526;SDS011;34317;51.660;5.824;2022-07-21T09:36:54;7.40;;;5.43;;
48526;SDS011;34317;51.660;5.824;2022-07-21T09:39:43;7.00;;;4.68;;
48526;SDS011;34317;51.660;5.824;2022-07-21T09:42:27;9.25;;;4.97;;
48526;SDS011;34317;51.660;5.824;2022-07-21T09:45:00;7.40;;;4.90;;
48526;SDS011;34317;51.660;5.824;2022-07-21T09:47:31;8.75;;;5.68;;
48526;SDS011;34317;51.660;5.824;2022-07-21T09:50:00;9.00;;;4.90;;
48526;SDS011;34317;51.660;5.824;2022-07-21T09:52:48;6.68;;;5.03;;
48526;SDS011;34317;51.660;5.824;2022-07-21T09:55:20;5.65;;;4.95;;
48526;SDS011;34317;51.660;5.824;2022-07-21T09:57:47;8.07;;;4.90;;
48526;SDS011;34317;51.660;5.824;2022-07-21T10:00:19;5.28;;;4.53;;
48526;SDS011;34317;51.660;5.824;2022-07-21T10:02:47;6.45;;;5.10;;
48526;SDS011;34317;51.660;5.824;2022-07-21T10:05:16;4.75;;;4.25;;
48526;SDS011;34317;51.660;5.824;2022-07-21T10:07:46;5.32;;;4.38;;
48526;SDS011;34317;51.660;5.824;2022-07-21T10:10:15;6.10;;;4.07;;
48526;SDS011;34317;51.660;5.824;2022-07-21T10:12:49;5.85;;;4.30;;
48526;SDS011;34317;51.660;5.824;2022-07-21T10:15:17;5.25;;;4.18;;
48526;SDS011;34317;51.660;5.824;2022-07-21T10:17:44;5.43;;;4.25;;
48526;SDS011;34317;51.660;5.824;2022-07-21T10:20:21;5.03;;;4.30;;
48526;SDS011;34317;51.660;5.824;2022-07-21T10:25:45;6.00;;;4.32;;
48526;SDS011;34317;51.660;5.824;2022-07-21T10:30:48;5.75;;;4.60;;
48526;SDS011;34317;51.660;5.824;2022-07-21T10:33:23;6.32;;;4.32;;
48526;SDS011;34317;51.660;5.824;2022-07-21T10:41:40;6.18;;;4.72;;
48526;SDS011;34317;51.660;5.824;2022-07-21T10:49:54;7.82;;;4.88;;
48526;SDS011;34317;51.660;5.824;2022-07-21T10:55:16;5.68;;;4.60;;
48526;SDS011;34317;51.660;5.824;2022-07-21T11:03:22;6.25;;;4.90;;
48526;SDS011;34317;51.660;5.824;2022-07-21T11:08:34;5.55;;;4.75;;
48526;SDS011;34317;51.660;5.824;2022-07-21T11:11:08;4.95;;;4.30;;
48526;SDS011;34317;51.660;5.824;2022-07-21T11:19:29;5.38;;;4.30;;
48526;SDS011;34317;51.660;5.824;2022-07-21T11:22:02;6.55;;;4.22;;
48526;SDS011;34317;51.660;5.824;2022-07-21T11:24:30;4.60;;;4.15;;
48526;SDS011;34317;51.660;5.824;2022-07-21T11:26:59;5.53;;;4.63;;
48526;SDS011;34317;51.660;5.824;2022-07-21T11:29:27;5.60;;;4.60;;
48526;SDS011;34317;51.660;5.824;2022-07-21T11:31:56;5.60;;;4.32;;
48526;SDS011;34317;51.660;5.824;2022-07-21T11:34:25;6.07;;;5.05;;
48526;SDS011;34317;51.660;5.824;2022-07-21T11:37:02;6.05;;;4.47;;
48526;SDS011;34317;51.660;5.824;2022-07-21T11:39:50;6.55;;;4.80;;
48526;SDS011;34317;51.660;5.824;2022-07-21T11:42:17;11.68;;;5.10;;
48526;SDS011;34317;51.660;5.824;2022-07-21T11:44:44;8.30;;;5.18;;
48526;SDS011;34317;51.660;5.824;2022-07-21T11:47:13;7.70;;;5.53;;
48526;SDS011;34317;51.660;5.824;2022-07-21T11:49:42;6.10;;;5.50;;
48526;SDS011;34317;51.660;5.824;2022-07-21T11:52:14;9.20;;;5.57;;
48526;SDS011;34317;51.660;5.824;2022-07-21T11:54:48;7.15;;;5.88;;
48526;SDS011;34317;51.660;5.824;2022-07-21T11:57:19;10.38;;;6.25;;
48526;SDS011;34317;51.660;5.824;2022-07-21T11:59:47;10.35;;;6.07;;
48526;SDS011;34317;51.660;5.824;2022-07-21T12:02:17;8.30;;;5.90;;
48526;SDS011;34317;51.660;5.824;2022-07-21T12:04:48;8.43;;;6.60;;
48526;SDS011;34317;51.660;5.824;2022-07-21T12:07:24;7.18;;;6.00;;
48526;SDS011;34317;51.660;5.824;2022-07-21T12:10:00;10.57;;;6.40;;
48526;SDS011;34317;51.660;5.824;2022-07-21T12:12:36;9.20;;;6.55;;
48526;SDS011;34317;51.660;5.824;2022-07-21T12:17:52;8.68;;;6.38;;
48526;SDS011;34317;51.660;5.824;2022-07-21T12:22:59;12.38;;;6.50;;
48526;SDS011;34317;51.660;5.824;2022-07-21T12:25:33;9.65;;;6.75;;
48526;SDS011;34317;51.660;5.824;2022-07-21T12:28:05;7.47;;;6.53;;
48526;SDS011;34317;51.660;5.824;2022-07-21T12:30:46;9.82;;;6.82;;
48526;SDS011;34317;51.660;5.824;2022-07-21T12:33:19;9.40;;;6.57;;
48526;SDS011;34317;51.660;5.824;2022-07-21T12:38:35;9.63;;;6.55;;
48526;SDS011;34317;51.660;5.824;2022-07-21T12:41:06;10.57;;;7.05;;
48526;SDS011;34317;51.660;5.824;2022-07-21T12:46:30;7.90;;;6.20;;
48526;SDS011;34317;51.660;5.824;2022-07-21T12:49:06;9.88;;;6.40;;
48526;SDS011;34317;51.660;5.824;2022-07-21T12:51:38;7.95;;;5.35;;
48526;SDS011;34317;51.660;5.824;2022-07-21T12:54:06;6.35;;;5.07;;
48526;SDS011;34317;51.660;5.824;2022-07-21T12:56:34;6.72;;;4.88;;
48526;SDS011;34317;51.660;5.824;2022-07-21T12:59:02;5.47;;;4.60;;
48526;SDS011;34317;51.660;5.824;2022-07-21T13:01:30;5.30;;;4.18;;
48526;SDS011;34317;51.660;5.824;2022-07-21T13:04:01;5.78;;;4.45;;
48526;SDS011;34317;51.660;5.824;2022-07-21T13:06:29;5.47;;;4.22;;
48526;SDS011;34317;51.660;5.824;2022-07-21T13:08:56;5.80;;;4.30;;
48526;SDS011;34317;51.660;5.824;2022-07-21T13:11:24;5.00;;;4.40;;
48526;SDS011;34317;51.660;5.824;2022-07-21T13:13:51;4.50;;;4.05;;
48526;SDS011;34317;51.660;5.824;2022-07-21T13:16:19;5.05;;;4.53;;
48526;SDS011;34317;51.660;5.824;2022-07-21T13:18:50;5.97;;;4.70;;
48526;SDS011;34317;51.660;5.824;2022-07-21T13:21:19;5.53;;;4.53;;
48526;SDS011;34317;51.660;5.824;2022-07-21T13:23:46;5.65;;;4.78;;
48526;SDS011;34317;51.660;5.824;2022-07-21T13:26:13;6.50;;;5.00;;
48526;SDS011;34317;51.660;5.824;2022-07-21T13:28:40;5.65;;;5.05;;
48526;SDS011;34317;51.660;5.824;2022-07-21T13:31:08;6.00;;;5.38;;
48526;SDS011;34317;51.660;5.824;2022-07-21T13:33:37;6.78;;;6.07;;
48526;SDS011;34317;51.660;5.824;2022-07-21T13:36:04;9.25;;;5.93;;
48526;SDS011;34317;51.660;5.824;2022-07-21T13:38:33;6.35;;;5.35;;
48526;SDS011;34317;51.660;5.824;2022-07-21T13:41:01;7.18;;;6.47;;
48526;SDS011;34317;51.660;5.824;2022-07-21T13:43:48;7.40;;;6.60;;
48526;SDS011;34317;51.660;5.824;2022-07-21T13:46:15;7.72;;;6.88;;
48526;SDS011;34317;51.660;5.824;2022-07-21T13:48:43;10.15;;;7.18;;
48526;SDS011;34317;51.660;5.824;2022-07-21T13:51:12;8.80;;;7.40;;
48526;SDS011;34317;51.660;5.824;2022-07-21T13:53:41;8.02;;;7.13;;
48526;SDS011;34317;51.660;5.824;2022-07-21T13:56:10;7.95;;;7.15;;
48526;SDS011;34317;51.660;5.824;2022-07-21T13:58:37;8.52;;;7.47;;
48526;SDS011;34317;51.660;5.824;2022-07-21T14:01:06;10.77;;;7.68;;
48526;SDS011;34317;51.660;5.824;2022-07-21T14:03:35;9.50;;;8.25;;
48526;SDS011;34317;51.660;5.824;2022-07-21T14:06:03;10.82;;;8.02;;
48526;SDS011;34317;51.660;5.824;2022-07-21T14:08:30;9.05;;;8.10;;
48526;SDS011;34317;51.660;5.824;2022-07-21T14:10:57;9.35;;;7.82;;
48526;SDS011;34317;51.660;5.824;2022-07-21T14:13:24;8.20;;;7.20;;
48526;SDS011;34317;51.660;5.824;2022-07-21T14:15:52;8.32;;;7.43;;
48526;SDS011;34317;51.660;5.824;2022-07-21T14:18:20;8.45;;;7.53;;
48526;SDS011;34317;51.660;5.824;2022-07-21T14:20:47;9.88;;;7.93;;
48526;SDS011;34317;51.660;5.824;2022-07-21T14:23:19;9.05;;;6.68;;
48526;SDS011;34317;51.660;5.824;2022-07-21T14:25:47;7.60;;;6.05;;
48526;SDS011;34317;51.660;5.824;2022-07-21T14:28:15;7.28;;;6.10;;
48526;SDS011;34317;51.660;5.824;2022-07-21T14:30:43;7.43;;;5.78;;
48526;SDS011;34317;51.660;5.824;2022-07-21T14:33:12;8.63;;;6.80;;
48526;SDS011;34317;51.660;5.824;2022-07-21T14:35:39;9.07;;;7.50;;
48526;SDS011;34317;51.660;5.824;2022-07-21T14:38:06;8.13;;;7.30;;
48526;SDS011;34317;51.660;5.824;2022-07-21T14:40:33;9.73;;;8.73;;
48526;SDS011;34317;51.660;5.824;2022-07-21T14:43:01;10.75;;;9.10;;
48526;SDS011;34317;51.660;5.824;2022-07-21T14:45:28;10.88;;;9.25;;
48526;SDS011;34317;51.660;5.824;2022-07-21T14:47:56;9.73;;;8.43;;
48526;SDS011;34317;51.660;5.824;2022-07-21T14:50:24;10.40;;;8.93;;
48526;SDS011;34317;51.660;5.824;2022-07-21T14:52:54;9.45;;;8.20;;
48526;SDS011;34317;51.660;5.824;2022-07-21T14:55:23;11.18;;;8.95;;
48526;SDS011;34317;51.660;5.824;2022-07-21T14:57:52;10.18;;;9.05;;
48526;SDS011;34317;51.660;5.824;2022-07-21T15:00:20;12.23;;;9.30;;
48526;SDS011;34317;51.660;5.824;2022-07-21T15:02:50;10.13;;;9.13;;
48526;SDS011;34317;51.660;5.824;2022-07-21T15:05:18;10.07;;;8.45;;
48526;SDS011;34317;51.660;5.824;2022-07-21T15:07:46;9.82;;;8.82;;
48526;SDS011;34317;51.660;5.824;2022-07-21T15:10:13;10.15;;;8.05;;
48526;SDS011;34317;51.660;5.824;2022-07-21T15:12:40;9.93;;;8.82;;
48526;SDS011;34317;51.660;5.824;2022-07-21T15:15:07;12.38;;;9.50;;
48526;SDS011;34317;51.660;5.824;2022-07-21T15:17:35;10.88;;;9.15;;
48526;SDS011;34317;51.660;5.824;2022-07-21T15:20:03;10.63;;;9.52;;
48526;SDS011;34317;51.660;5.824;2022-07-21T15:22:38;10.68;;;8.88;;
48526;SDS011;34317;51.660;5.824;2022-07-21T15:25:06;9.70;;;8.40;;
48526;SDS011;34317;51.660;5.824;2022-07-21T15:27:40;11.25;;;8.57;;
48526;SDS011;34317;51.660;5.824;2022-07-21T15:30:10;9.55;;;8.55;;
48526;SDS011;34317;51.660;5.824;2022-07-21T15:32:39;9.82;;;8.45;;